sensor_id;sensor_type;location;lat;lon;timestamp;P1;durP1;ratioP1;P2;durP2;ratioP2
15526;SDS011;7865;50.918;4.510;2022-11-20T00:04:26;34.07;;;19.13;;
15526;SDS011;7865;50.918;4.510;2022-11-20T00:09:28;38.47;;;20.03;;
15526;SDS011;7865;50.918;4.510;2022-11-20T00:14:30;36.77;;;18.83;;
15526;SDS011;7865;50.918;4.510;2022-11-20T00:19:32;34.67;;;18.33;;
15526;SDS011;7865;50.918;4.510;2022-11-20T00:24:34;40.77;;;18.83;;
15526;SDS011;7865;50.918;4.510;2022-11-20T00:29:43;39.53;;;19.70;;
15526;SDS011;7865;50.918;4.510;2022-11-20T00:34:45;39.27;;;19.23;;
15526;SDS011;7865;50.918;4.510;2022-11-20T00:39:47;42.17;;;20.63;;
15526;SDS011;7865;50.918;4.510;2022-11-20T00:44:48;48.07;;;21.43;;
15526;SDS011;7865;50.918;4.510;2022-11-20T00:49:50;41.13;;;19.47;;
15526;SDS011;7865;50.918;4.510;2022-11-20T00:54:52;39.53;;;19.10;;
15526;SDS011;7865;50.918;4.510;2022-11-20T00:59:54;38.47;;;19.63;;
15526;SDS011;7865;50.918;4.510;2022-11-20T01:04:55;36.00;;;17.87;;
15526;SDS011;7865;50.918;4.510;2022-11-20T01:09:57;37.93;;;18.50;;
15526;SDS011;7865;50.918;4.510;2022-11-20T01:14:59;44.97;;;20.70;;
15526;SDS011;7865;50.918;4.510;2022-11-20T01:20:01;34.80;;;19.07;;
15526;SDS011;7865;50.918;4.510;2022-11-20T01:25:03;38.63;;;20.63;;
15526;SDS011;7865;50.918;4.510;2022-11-20T01:30:05;41.53;;;19.50;;
15526;SDS011;7865;50.918;4.510;2022-11-20T01:35:08;51.93;;;20.90;;
15526;SDS011;7865;50.918;4.510;2022-11-20T01:40:11;46.33;;;20.37;;
15526;SDS011;7865;50.918;4.510;2022-11-20T01:50:52;42.70;;;19.80;;
15526;SDS011;7865;50.918;4.510;2022-11-20T01:55:56;38.53;;;19.80;;
15526;SDS011;7865;50.918;4.510;2022-11-20T02:01:00;37.80;;;18.90;;
15526;SDS011;7865;50.918;4.510;2022-11-20T02:06:23;39.40;;;20.60;;
15526;SDS011;7865;50.918;4.510;2022-11-20T02:11:26;39.73;;;19.23;;
15526;SDS011;7865;50.918;4.510;2022-11-20T02:16:30;43.60;;;20.80;;
15526;SDS011;7865;50.918;4.510;2022-11-20T02:27:06;57.80;;;24.10;;
15526;SDS011;7865;50.918;4.510;2022-11-20T02:32:44;50.20;;;23.03;;
15526;SDS011;7865;50.918;4.510;2022-11-20T02:37:39;45.50;;;23.33;;
15526;SDS011;7865;50.918;4.510;2022-11-20T02:42:42;49.13;;;23.97;;
15526;SDS011;7865;50.918;4.510;2022-11-20T02:47:44;47.97;;;23.23;;
15526;SDS011;7865;50.918;4.510;2022-11-20T02:52:45;50.43;;;22.57;;
15526;SDS011;7865;50.918;4.510;2022-11-20T02:57:48;55.50;;;25.30;;
15526;SDS011;7865;50.918;4.510;2022-11-20T03:02:49;57.30;;;25.77;;
15526;SDS011;7865;50.918;4.510;2022-11-20T03:07:51;60.20;;;27.03;;
15526;SDS011;7865;50.918;4.510;2022-11-20T03:12:53;65.33;;;26.00;;
15526;SDS011;7865;50.918;4.510;2022-11-20T03:17:56;56.40;;;24.77;;
15526;SDS011;7865;50.918;4.510;2022-11-20T03:22:58;56.03;;;25.10;;
15526;SDS011;7865;50.918;4.510;2022-11-20T03:28:00;55.70;;;24.77;;
15526;SDS011;7865;50.918;4.510;2022-11-20T03:33:02;50.70;;;24.17;;
15526;SDS011;7865;50.918;4.510;2022-11-20T03:38:04;51.60;;;23.77;;
15526;SDS011;7865;50.918;4.510;2022-11-20T03:43:06;42.80;;;18.93;;
15526;SDS011;7865;50.918;4.510;2022-11-20T03:48:08;47.07;;;19.97;;
15526;SDS011;7865;50.918;4.510;2022-11-20T03:53:10;45.53;;;18.73;;
15526;SDS011;7865;50.918;4.510;2022-11-20T03:58:12;45.73;;;18.20;;
15526;SDS011;7865;50.918;4.510;2022-11-20T04:03:14;40.67;;;17.47;;
15526;SDS011;7865;50.918;4.510;2022-11-20T04:08:16;32.80;;;15.87;;
15526;SDS011;7865;50.918;4.510;2022-11-20T04:13:18;36.63;;;16.73;;
15526;SDS011;7865;50.918;4.510;2022-11-20T04:18:20;31.27;;;14.00;;
15526;SDS011;7865;50.918;4.510;2022-11-20T04:23:22;31.70;;;14.20;;
15526;SDS011;7865;50.918;4.510;2022-11-20T04:28:29;30.33;;;14.23;;
15526;SDS011;7865;50.918;4.510;2022-11-20T04:33:31;31.60;;;13.60;;
15526;SDS011;7865;50.918;4.510;2022-11-20T04:38:35;34.67;;;14.40;;
15526;SDS011;7865;50.918;4.510;2022-11-20T04:43:36;32.40;;;15.00;;
15526;SDS011;7865;50.918;4.510;2022-11-20T04:48:38;35.57;;;15.03;;
15526;SDS011;7865;50.918;4.510;2022-11-20T04:53:41;38.60;;;14.43;;
15526;SDS011;7865;50.918;4.510;2022-11-20T04:58:43;40.23;;;16.50;;
15526;SDS011;7865;50.918;4.510;2022-11-20T05:03:45;46.00;;;17.43;;
15526;SDS011;7865;50.918;4.510;2022-11-20T05:08:47;40.80;;;16.43;;
15526;SDS011;7865;50.918;4.510;2022-11-20T05:13:50;43.23;;;15.67;;
15526;SDS011;7865;50.918;4.510;2022-11-20T05:18:53;45.83;;;17.07;;
15526;SDS011;7865;50.918;4.510;2022-11-20T05:23:56;39.93;;;15.70;;
15526;SDS011;7865;50.918;4.510;2022-11-20T05:28:58;36.77;;;15.70;;
15526;SDS011;7865;50.918;4.510;2022-11-20T05:33:59;42.67;;;17.03;;
15526;SDS011;7865;50.918;4.510;2022-11-20T05:39:01;41.40;;;16.73;;
15526;SDS011;7865;50.918;4.510;2022-11-20T05:44:03;32.00;;;14.57;;
15526;SDS011;7865;50.918;4.510;2022-11-20T05:49:05;40.53;;;16.07;;
15526;SDS011;7865;50.918;4.510;2022-11-20T05:54:07;34.83;;;15.87;;
15526;SDS011;7865;50.918;4.510;2022-11-20T05:59:09;46.13;;;18.20;;
15526;SDS011;7865;50.918;4.510;2022-11-20T06:04:11;40.80;;;16.73;;
15526;SDS011;7865;50.918;4.510;2022-11-20T06:09:12;45.60;;;18.90;;
15526;SDS011;7865;50.918;4.510;2022-11-20T06:14:14;48.33;;;19.63;;
15526;SDS011;7865;50.918;4.510;2022-11-20T06:19:16;48.47;;;19.27;;
15526;SDS011;7865;50.918;4.510;2022-11-20T06:24:18;42.63;;;18.07;;
15526;SDS011;7865;50.918;4.510;2022-11-20T06:29:20;53.73;;;21.47;;
15526;SDS011;7865;50.918;4.510;2022-11-20T06:34:22;65.50;;;21.60;;
15526;SDS011;7865;50.918;4.510;2022-11-20T06:39:24;50.20;;;19.33;;
15526;SDS011;7865;50.918;4.510;2022-11-20T06:44:26;65.60;;;20.70;;
15526;SDS011;7865;50.918;4.510;2022-11-20T06:49:28;60.63;;;20.53;;
15526;SDS011;7865;50.918;4.510;2022-11-20T06:54:29;67.00;;;19.63;;
15526;SDS011;7865;50.918;4.510;2022-11-20T06:59:31;66.30;;;18.03;;
15526;SDS011;7865;50.918;4.510;2022-11-20T07:04:33;65.60;;;20.57;;
15526;SDS011;7865;50.918;4.510;2022-11-20T07:09:35;66.13;;;19.57;;
15526;SDS011;7865;50.918;4.510;2022-11-20T07:14:37;74.10;;;20.70;;
15526;SDS011;7865;50.918;4.510;2022-11-20T07:19:39;76.40;;;21.40;;
15526;SDS011;7865;50.918;4.510;2022-11-20T07:24:41;74.17;;;20.57;;
15526;SDS011;7865;50.918;4.510;2022-11-20T07:29:46;70.33;;;21.43;;
15526;SDS011;7865;50.918;4.510;2022-11-20T07:34:48;67.10;;;21.53;;
15526;SDS011;7865;50.918;4.510;2022-11-20T07:39:50;76.70;;;23.70;;
15526;SDS011;7865;50.918;4.510;2022-11-20T07:44:52;75.83;;;24.60;;
15526;SDS011;7865;50.918;4.510;2022-11-20T07:49:54;79.30;;;20.63;;
15526;SDS011;7865;50.918;4.510;2022-11-20T07:54:56;79.43;;;22.03;;
15526;SDS011;7865;50.918;4.510;2022-11-20T07:59:58;87.07;;;23.33;;
15526;SDS011;7865;50.918;4.510;2022-11-20T08:04:59;74.63;;;22.57;;
15526;SDS011;7865;50.918;4.510;2022-11-20T08:10:01;80.77;;;23.30;;
15526;SDS011;7865;50.918;4.510;2022-11-20T08:15:03;77.00;;;22.43;;
15526;SDS011;7865;50.918;4.510;2022-11-20T08:20:13;96.67;;;24.77;;
15526;SDS011;7865;50.918;4.510;2022-11-20T08:25:15;84.43;;;24.43;;
15526;SDS011;7865;50.918;4.510;2022-11-20T08:30:17;85.93;;;23.83;;
15526;SDS011;7865;50.918;4.510;2022-11-20T08:35:19;77.57;;;23.47;;
15526;SDS011;7865;50.918;4.510;2022-11-20T08:40:21;82.67;;;23.37;;
15526;SDS011;7865;50.918;4.510;2022-11-20T08:45:23;85.50;;;24.33;;
15526;SDS011;7865;50.918;4.510;2022-11-20T08:50:31;81.80;;;24.33;;
15526;SDS011;7865;50.918;4.510;2022-11-20T08:55:34;88.67;;;24.60;;
15526;SDS011;7865;50.918;4.510;2022-11-20T09:00:38;90.57;;;23.93;;
15526;SDS011;7865;50.918;4.510;2022-11-20T09:05:40;67.90;;;21.03;;
15526;SDS011;7865;50.918;4.510;2022-11-20T09:10:42;80.50;;;22.87;;
15526;SDS011;7865;50.918;4.510;2022-11-20T09:15:44;78.10;;;24.40;;
15526;SDS011;7865;50.918;4.510;2022-11-20T09:20:46;78.97;;;22.87;;
15526;SDS011;7865;50.918;4.510;2022-11-20T09:25:47;75.00;;;23.33;;
15526;SDS011;7865;50.918;4.510;2022-11-20T09:30:49;76.60;;;21.37;;
15526;SDS011;7865;50.918;4.510;2022-11-20T09:35:51;70.37;;;22.67;;
15526;SDS011;7865;50.918;4.510;2022-11-20T09:46:12;67.37;;;20.63;;
15526;SDS011;7865;50.918;4.510;2022-11-20T09:56:53;67.60;;;20.90;;
15526;SDS011;7865;50.918;4.510;2022-11-20T10:01:58;55.87;;;19.77;;
15526;SDS011;7865;50.918;4.510;2022-11-20T10:07:16;61.47;;;22.43;;
15526;SDS011;7865;50.918;4.510;2022-11-20T10:12:52;61.40;;;19.97;;
15526;SDS011;7865;50.918;4.510;2022-11-20T10:28:28;60.50;;;19.83;;
15526;SDS011;7865;50.918;4.510;2022-11-20T10:33:36;52.37;;;19.20;;
15526;SDS011;7865;50.918;4.510;2022-11-20T10:39:03;46.47;;;17.10;;
15526;SDS011;7865;50.918;4.510;2022-11-20T10:49:38;35.97;;;14.37;;
15526;SDS011;7865;50.918;4.510;2022-11-20T10:55:06;38.80;;;14.10;;
15526;SDS011;7865;50.918;4.510;2022-11-20T11:00:23;29.47;;;12.47;;
15526;SDS011;7865;50.918;4.510;2022-11-20T11:05:32;28.60;;;11.13;;
15526;SDS011;7865;50.918;4.510;2022-11-20T11:10:43;19.23;;;8.93;;
15526;SDS011;7865;50.918;4.510;2022-11-20T11:15:56;16.80;;;7.13;;
15526;SDS011;7865;50.918;4.510;2022-11-20T11:20:59;11.97;;;6.57;;
15526;SDS011;7865;50.918;4.510;2022-11-20T11:26:04;11.10;;;6.17;;
15526;SDS011;7865;50.918;4.510;2022-11-20T11:31:08;7.93;;;4.27;;
15526;SDS011;7865;50.918;4.510;2022-11-20T11:36:17;8.63;;;4.23;;
15526;SDS011;7865;50.918;4.510;2022-11-20T11:41:23;7.80;;;3.53;;
15526;SDS011;7865;50.918;4.510;2022-11-20T11:46:33;6.47;;;3.20;;
15526;SDS011;7865;50.918;4.510;2022-11-20T12:02:43;5.97;;;2.90;;
15526;SDS011;7865;50.918;4.510;2022-11-20T12:07:57;4.80;;;2.50;;
15526;SDS011;7865;50.918;4.510;2022-11-20T12:18:41;8.43;;;2.80;;
15526;SDS011;7865;50.918;4.510;2022-11-20T12:23:53;6.10;;;2.53;;
15526;SDS011;7865;50.918;4.510;2022-11-20T12:34:13;8.97;;;2.43;;
15526;SDS011;7865;50.918;4.510;2022-11-20T12:39:34;7.87;;;2.63;;
15526;SDS011;7865;50.918;4.510;2022-11-20T12:50:34;8.97;;;2.87;;
15526;SDS011;7865;50.918;4.510;2022-11-20T13:06:44;8.13;;;2.80;;
15526;SDS011;7865;50.918;4.510;2022-11-20T13:17:10;3.83;;;3.13;;
15526;SDS011;7865;50.918;4.510;2022-11-20T13:27:47;11.53;;;3.37;;
15526;SDS011;7865;50.918;4.510;2022-11-20T13:32:51;9.50;;;3.57;;
15526;SDS011;7865;50.918;4.510;2022-11-20T13:43:35;6.13;;;3.30;;
15526;SDS011;7865;50.918;4.510;2022-11-20T13:48:41;3.57;;;2.57;;
15526;SDS011;7865;50.918;4.510;2022-11-20T14:04:17;3.93;;;2.10;;
15526;SDS011;7865;50.918;4.510;2022-11-20T14:14:32;2.20;;;1.93;;
15526;SDS011;7865;50.918;4.510;2022-11-20T14:19:35;2.40;;;1.83;;
15526;SDS011;7865;50.918;4.510;2022-11-20T14:24:39;2.47;;;1.63;;
15526;SDS011;7865;50.918;4.510;2022-11-20T14:29:41;2.30;;;1.50;;
15526;SDS011;7865;50.918;4.510;2022-11-20T14:34:47;5.17;;;2.20;;
15526;SDS011;7865;50.918;4.510;2022-11-20T14:39:51;4.80;;;2.30;;
15526;SDS011;7865;50.918;4.510;2022-11-20T14:44:55;4.47;;;2.70;;
15526;SDS011;7865;50.918;4.510;2022-11-20T14:49:59;4.03;;;2.30;;
15526;SDS011;7865;50.918;4.510;2022-11-20T14:55:13;3.27;;;2.53;;
15526;SDS011;7865;50.918;4.510;2022-11-20T15:05:18;6.50;;;3.70;;
15526;SDS011;7865;50.918;4.510;2022-11-20T15:10:25;4.73;;;3.30;;
15526;SDS011;7865;50.918;4.510;2022-11-20T15:20:50;4.93;;;3.27;;
15526;SDS011;7865;50.918;4.510;2022-11-20T15:25:53;4.43;;;4.03;;
15526;SDS011;7865;50.918;4.510;2022-11-20T15:30:55;5.20;;;3.87;;
15526;SDS011;7865;50.918;4.510;2022-11-20T15:36:00;7.67;;;3.93;;
15526;SDS011;7865;50.918;4.510;2022-11-20T15:41:02;6.97;;;4.37;;
15526;SDS011;7865;50.918;4.510;2022-11-20T15:46:50;4.70;;;4.13;;
15526;SDS011;7865;50.918;4.510;2022-11-20T15:51:31;7.90;;;4.70;;
15526;SDS011;7865;50.918;4.510;2022-11-20T15:56:35;7.43;;;4.17;;
15526;SDS011;7865;50.918;4.510;2022-11-20T16:01:37;7.57;;;4.53;;
15526;SDS011;7865;50.918;4.510;2022-11-20T16:06:39;6.33;;;4.27;;
15526;SDS011;7865;50.918;4.510;2022-11-20T16:11:41;9.77;;;5.10;;
15526;SDS011;7865;50.918;4.510;2022-11-20T16:16:43;8.40;;;4.23;;
15526;SDS011;7865;50.918;4.510;2022-11-20T16:21:45;8.30;;;4.13;;
15526;SDS011;7865;50.918;4.510;2022-11-20T16:26:47;4.90;;;3.47;;
15526;SDS011;7865;50.918;4.510;2022-11-20T16:31:49;9.57;;;4.20;;
15526;SDS011;7865;50.918;4.510;2022-11-20T16:36:51;11.20;;;3.97;;
15526;SDS011;7865;50.918;4.510;2022-11-20T16:41:53;10.13;;;3.03;;
15526;SDS011;7865;50.918;4.510;2022-11-20T16:46:54;8.70;;;3.87;;
15526;SDS011;7865;50.918;4.510;2022-11-20T16:51:56;13.67;;;3.40;;
15526;SDS011;7865;50.918;4.510;2022-11-20T16:56:58;19.00;;;4.37;;
15526;SDS011;7865;50.918;4.510;2022-11-20T17:02:00;11.37;;;3.00;;
15526;SDS011;7865;50.918;4.510;2022-11-20T17:07:02;15.63;;;3.70;;
15526;SDS011;7865;50.918;4.510;2022-11-20T17:12:08;17.57;;;2.70;;
15526;SDS011;7865;50.918;4.510;2022-11-20T17:17:11;14.17;;;2.83;;
15526;SDS011;7865;50.918;4.510;2022-11-20T17:22:13;10.07;;;2.10;;
15526;SDS011;7865;50.918;4.510;2022-11-20T17:27:14;6.13;;;1.83;;
15526;SDS011;7865;50.918;4.510;2022-11-20T17:32:16;14.70;;;1.73;;
15526;SDS011;7865;50.918;4.510;2022-11-20T17:37:18;3.83;;;1.13;;
15526;SDS011;7865;50.918;4.510;2022-11-20T17:42:20;7.53;;;1.40;;
15526;SDS011;7865;50.918;4.510;2022-11-20T17:47:29;6.50;;;1.03;;
15526;SDS011;7865;50.918;4.510;2022-11-20T17:52:30;7.67;;;1.50;;
15526;SDS011;7865;50.918;4.510;2022-11-20T17:57:32;5.60;;;1.23;;
15526;SDS011;7865;50.918;4.510;2022-11-20T18:02:54;13.17;;;2.03;;
15526;SDS011;7865;50.918;4.510;2022-11-20T18:07:56;1.70;;;1.17;;
15526;SDS011;7865;50.918;4.510;2022-11-20T18:12:58;5.30;;;1.53;;
15526;SDS011;7865;50.918;4.510;2022-11-20T18:17:59;4.93;;;1.57;;
15526;SDS011;7865;50.918;4.510;2022-11-20T18:23:01;8.63;;;1.90;;
15526;SDS011;7865;50.918;4.510;2022-11-20T18:28:03;9.87;;;1.90;;
15526;SDS011;7865;50.918;4.510;2022-11-20T18:33:05;7.60;;;3.20;;
15526;SDS011;7865;50.918;4.510;2022-11-20T18:38:07;9.17;;;3.30;;
15526;SDS011;7865;50.918;4.510;2022-11-20T18:43:09;10.60;;;4.57;;
15526;SDS011;7865;50.918;4.510;2022-11-20T18:48:30;13.77;;;4.57;;
15526;SDS011;7865;50.918;4.510;2022-11-20T18:53:35;17.13;;;5.70;;
15526;SDS011;7865;50.918;4.510;2022-11-20T18:58:37;14.23;;;5.50;;
15526;SDS011;7865;50.918;4.510;2022-11-20T19:03:41;18.83;;;4.93;;
15526;SDS011;7865;50.918;4.510;2022-11-20T19:08:44;14.77;;;5.37;;
15526;SDS011;7865;50.918;4.510;2022-11-20T19:13:46;16.90;;;5.57;;
15526;SDS011;7865;50.918;4.510;2022-11-20T19:18:48;17.00;;;4.40;;
15526;SDS011;7865;50.918;4.510;2022-11-20T19:23:51;11.73;;;3.97;;
15526;SDS011;7865;50.918;4.510;2022-11-20T19:28:54;18.07;;;4.07;;
15526;SDS011;7865;50.918;4.510;2022-11-20T19:33:57;11.33;;;3.87;;
15526;SDS011;7865;50.918;4.510;2022-11-20T19:39:01;10.00;;;3.17;;
15526;SDS011;7865;50.918;4.510;2022-11-20T19:44:07;17.33;;;3.83;;
15526;SDS011;7865;50.918;4.510;2022-11-20T19:49:11;19.17;;;4.80;;
15526;SDS011;7865;50.918;4.510;2022-11-20T19:54:14;15.23;;;4.30;;
15526;SDS011;7865;50.918;4.510;2022-11-20T19:59:17;17.17;;;4.80;;
15526;SDS011;7865;50.918;4.510;2022-11-20T20:04:19;18.57;;;5.23;;
15526;SDS011;7865;50.918;4.510;2022-11-20T20:09:21;12.70;;;4.37;;
15526;SDS011;7865;50.918;4.510;2022-11-20T20:14:24;21.40;;;4.67;;
15526;SDS011;7865;50.918;4.510;2022-11-20T20:19:27;16.33;;;5.10;;
15526;SDS011;7865;50.918;4.510;2022-11-20T20:24:29;12.97;;;4.50;;
15526;SDS011;7865;50.918;4.510;2022-11-20T20:29:30;16.30;;;5.03;;
15526;SDS011;7865;50.918;4.510;2022-11-20T20:34:32;17.07;;;4.47;;
15526;SDS011;7865;50.918;4.510;2022-11-20T20:39:34;11.83;;;4.90;;
15526;SDS011;7865;50.918;4.510;2022-11-20T20:44:36;17.27;;;4.30;;
15526;SDS011;7865;50.918;4.510;2022-11-20T20:49:56;16.00;;;3.57;;
15526;SDS011;7865;50.918;4.510;2022-11-20T20:54:58;21.43;;;4.63;;
15526;SDS011;7865;50.918;4.510;2022-11-20T21:00:00;8.50;;;3.60;;
15526;SDS011;7865;50.918;4.510;2022-11-20T21:05:02;14.10;;;5.90;;
15526;SDS011;7865;50.918;4.510;2022-11-20T21:10:04;14.30;;;3.40;;
15526;SDS011;7865;50.918;4.510;2022-11-20T21:15:07;17.30;;;4.40;;
15526;SDS011;7865;50.918;4.510;2022-11-20T21:20:09;17.90;;;5.20;;
15526;SDS011;7865;50.918;4.510;2022-11-20T21:25:34;14.53;;;3.90;;
15526;SDS011;7865;50.918;4.510;2022-11-20T21:30:37;15.07;;;3.53;;
15526;SDS011;7865;50.918;4.510;2022-11-20T21:35:39;14.77;;;3.00;;
15526;SDS011;7865;50.918;4.510;2022-11-20T21:40:42;9.47;;;3.53;;
15526;SDS011;7865;50.918;4.510;2022-11-20T21:45:43;8.77;;;3.90;;
15526;SDS011;7865;50.918;4.510;2022-11-20T21:50:45;13.77;;;3.80;;
15526;SDS011;7865;50.918;4.510;2022-11-20T21:55:54;12.03;;;4.40;;
15526;SDS011;7865;50.918;4.510;2022-11-20T22:00:56;13.43;;;4.23;;
15526;SDS011;7865;50.918;4.510;2022-11-20T22:05:58;14.53;;;4.13;;
15526;SDS011;7865;50.918;4.510;2022-11-20T22:11:01;12.07;;;3.60;;
15526;SDS011;7865;50.918;4.510;2022-11-20T22:16:05;23.43;;;4.13;;
15526;SDS011;7865;50.918;4.510;2022-11-20T22:21:07;7.27;;;3.73;;
15526;SDS011;7865;50.918;4.510;2022-11-20T22:26:10;10.87;;;4.53;;
15526;SDS011;7865;50.918;4.510;2022-11-20T22:31:13;10.30;;;3.83;;
15526;SDS011;7865;50.918;4.510;2022-11-20T22:36:16;12.07;;;2.70;;
15526;SDS011;7865;50.918;4.510;2022-11-20T22:41:23;10.97;;;3.80;;
15526;SDS011;7865;50.918;4.510;2022-11-20T22:46:33;14.13;;;3.20;;
15526;SDS011;7865;50.918;4.510;2022-11-20T22:51:38;12.63;;;3.57;;
15526;SDS011;7865;50.918;4.510;2022-11-20T22:56:41;9.53;;;3.03;;
15526;SDS011;7865;50.918;4.510;2022-11-20T23:01:43;10.80;;;3.03;;
15526;SDS011;7865;50.918;4.510;2022-11-20T23:06:45;8.87;;;2.83;;
15526;SDS011;7865;50.918;4.510;2022-11-20T23:11:47;7.67;;;2.33;;
15526;SDS011;7865;50.918;4.510;2022-11-20T23:16:48;5.57;;;1.83;;
15526;SDS011;7865;50.918;4.510;2022-11-20T23:21:50;5.17;;;1.37;;
15526;SDS011;7865;50.918;4.510;2022-11-20T23:26:52;5.23;;;1.50;;
15526;SDS011;7865;50.918;4.510;2022-11-20T23:31:54;2.57;;;0.90;;
15526;SDS011;7865;50.918;4.510;2022-11-20T23:36:56;1.23;;;0.70;;
15526;SDS011;7865;50.918;4.510;2022-11-20T23:41:58;3.00;;;0.43;;
15526;SDS011;7865;50.918;4.510;2022-11-20T23:47:00;0.93;;;0.60;;
15526;SDS011;7865;50.918;4.510;2022-11-20T23:52:01;2.10;;;0.80;;
15526;SDS011;7865;50.918;4.510;2022-11-20T23:57:04;2.10;;;0.83;;
